sensor_id;sensor_type;location;lat;lon;timestamp;pressure;altitude;pressure_sealevel;temperature;humidity
25722;BME280;13578;53.450;15.496;2022-10-13T00:01:50;100572.47;;;5.48;100.00
25722;BME280;13578;53.450;15.496;2022-10-13T00:04:51;100580.72;;;5.47;100.00
25722;BME280;13578;53.450;15.496;2022-10-13T00:07:51;100569.38;;;5.38;100.00
25722;BME280;13578;53.450;15.496;2022-10-13T00:10:52;100567.44;;;5.40;100.00
25722;BME280;13578;53.450;15.496;2022-10-13T00:13:58;100562.28;;;5.36;100.00
25722;BME280;13578;53.450;15.496;2022-10-13T00:16:59;100567.88;;;5.49;100.00
25722;BME280;13578;53.450;15.496;2022-10-13T00:19:59;100555.53;;;5.43;100.00
25722;BME280;13578;53.450;15.496;2022-10-13T00:23:00;100549.63;;;5.35;100.00
25722;BME280;13578;53.450;15.496;2022-10-13T00:26:05;100550.84;;;5.29;100.00
25722;BME280;13578;53.450;15.496;2022-10-13T00:41:02;100541.69;;;5.14;100.00
25722;BME280;13578;53.450;15.496;2022-10-13T00:47:45;100543.69;;;5.11;100.00
25722;BME280;13578;53.450;15.496;2022-10-13T00:50:46;100535.53;;;5.11;100.00
25722;BME280;13578;53.450;15.496;2022-10-13T00:53:48;100543.97;;;5.06;100.00
25722;BME280;13578;53.450;15.496;2022-10-13T00:56:49;100537.13;;;5.15;100.00
25722;BME280;13578;53.450;15.496;2022-10-13T00:59:50;100547.66;;;5.05;100.00
25722;BME280;13578;53.450;15.496;2022-10-13T01:02:51;100539.84;;;4.99;100.00
25722;BME280;13578;53.450;15.496;2022-10-13T01:05:56;100536.44;;;4.77;100.00
25722;BME280;13578;53.450;15.496;2022-10-13T01:08:57;100535.09;;;4.69;100.00
25722;BME280;13578;53.450;15.496;2022-10-13T01:12:01;100532.75;;;4.79;100.00
25722;BME280;13578;53.450;15.496;2022-10-13T01:18:54;100531.16;;;4.74;100.00
25722;BME280;13578;53.450;15.496;2022-10-13T01:22:29;100526.63;;;4.57;100.00
25722;BME280;13578;53.450;15.496;2022-10-13T01:28:56;100523.66;;;4.62;100.00
25722;BME280;13578;53.450;15.496;2022-10-13T01:32:53;100526.13;;;4.67;100.00
25722;BME280;13578;53.450;15.496;2022-10-13T01:35:41;100521.03;;;4.60;100.00
25722;BME280;13578;53.450;15.496;2022-10-13T01:38:46;100514.22;;;4.52;100.00
25722;BME280;13578;53.450;15.496;2022-10-13T01:41:53;100511.13;;;4.59;100.00
25722;BME280;13578;53.450;15.496;2022-10-13T01:44:58;100507.34;;;4.62;100.00
25722;BME280;13578;53.450;15.496;2022-10-13T01:48:00;100492.09;;;4.59;100.00
25722;BME280;13578;53.450;15.496;2022-10-13T01:51:04;100500.09;;;4.63;100.00
25722;BME280;13578;53.450;15.496;2022-10-13T01:54:06;100497.09;;;4.67;100.00
25722;BME280;13578;53.450;15.496;2022-10-13T01:57:30;100489.72;;;4.69;100.00
25722;BME280;13578;53.450;15.496;2022-10-13T02:00:38;100487.19;;;4.66;100.00
25722;BME280;13578;53.450;15.496;2022-10-13T02:03:56;100481.66;;;4.68;100.00
25722;BME280;13578;53.450;15.496;2022-10-13T02:17:03;100483.94;;;4.59;100.00
25722;BME280;13578;53.450;15.496;2022-10-13T02:20:05;100483.84;;;4.61;100.00
25722;BME280;13578;53.450;15.496;2022-10-13T02:23:10;100465.69;;;4.61;100.00
25722;BME280;13578;53.450;15.496;2022-10-13T02:26:12;100460.88;;;4.67;100.00
25722;BME280;13578;53.450;15.496;2022-10-13T02:29:15;100467.75;;;4.56;100.00
25722;BME280;13578;53.450;15.496;2022-10-13T02:32:16;100465.00;;;4.58;100.00
25722;BME280;13578;53.450;15.496;2022-10-13T02:35:16;100462.66;;;4.50;100.00
25722;BME280;13578;53.450;15.496;2022-10-13T02:38:17;100461.72;;;4.51;100.00
25722;BME280;13578;53.450;15.496;2022-10-13T02:41:18;100450.69;;;4.54;100.00
25722;BME280;13578;53.450;15.496;2022-10-13T02:44:18;100451.28;;;4.59;100.00
25722;BME280;13578;53.450;15.496;2022-10-13T02:47:20;100453.41;;;4.54;100.00
25722;BME280;13578;53.450;15.496;2022-10-13T02:50:20;100449.06;;;4.50;100.00
25722;BME280;13578;53.450;15.496;2022-10-13T02:53:21;100445.50;;;4.50;100.00
25722;BME280;13578;53.450;15.496;2022-10-13T02:56:22;100447.97;;;4.54;100.00
25722;BME280;13578;53.450;15.496;2022-10-13T02:59:22;100447.16;;;4.52;100.00
25722;BME280;13578;53.450;15.496;2022-10-13T03:02:25;100434.53;;;4.51;100.00
25722;BME280;13578;53.450;15.496;2022-10-13T03:05:26;100435.56;;;4.49;100.00
25722;BME280;13578;53.450;15.496;2022-10-13T03:08:26;100438.75;;;4.57;100.00
25722;BME280;13578;53.450;15.496;2022-10-13T03:11:27;100433.72;;;4.49;100.00
25722;BME280;13578;53.450;15.496;2022-10-13T03:14:28;100430.50;;;4.58;100.00
25722;BME280;13578;53.450;15.496;2022-10-13T03:17:28;100436.19;;;4.54;100.00
25722;BME280;13578;53.450;15.496;2022-10-13T03:20:29;100425.94;;;4.59;100.00
25722;BME280;13578;53.450;15.496;2022-10-13T03:23:30;100423.25;;;4.75;100.00
25722;BME280;13578;53.450;15.496;2022-10-13T03:26:31;100427.75;;;4.76;100.00
25722;BME280;13578;53.450;15.496;2022-10-13T03:29:32;100423.25;;;4.75;100.00
25722;BME280;13578;53.450;15.496;2022-10-13T03:32:33;100419.13;;;4.68;100.00
25722;BME280;13578;53.450;15.496;2022-10-13T03:35:33;100422.66;;;4.70;100.00
25722;BME280;13578;53.450;15.496;2022-10-13T03:38:35;100416.56;;;4.65;100.00
25722;BME280;13578;53.450;15.496;2022-10-13T03:41:36;100424.91;;;4.61;100.00
25722;BME280;13578;53.450;15.496;2022-10-13T03:44:36;100419.84;;;4.71;100.00
25722;BME280;13578;53.450;15.496;2022-10-13T03:47:38;100417.38;;;4.83;100.00
25722;BME280;13578;53.450;15.496;2022-10-13T03:50:38;100414.25;;;4.90;100.00
25722;BME280;13578;53.450;15.496;2022-10-13T03:53:39;100410.56;;;4.91;100.00
25722;BME280;13578;53.450;15.496;2022-10-13T03:56:40;100401.00;;;4.84;100.00
25722;BME280;13578;53.450;15.496;2022-10-13T03:59:42;100404.13;;;4.76;100.00
25722;BME280;13578;53.450;15.496;2022-10-13T04:02:42;100411.78;;;4.70;100.00
25722;BME280;13578;53.450;15.496;2022-10-13T04:05:43;100403.16;;;4.61;100.00
25722;BME280;13578;53.450;15.496;2022-10-13T04:08:44;100405.69;;;4.65;100.00
25722;BME280;13578;53.450;15.496;2022-10-13T04:11:45;100397.53;;;4.65;100.00
25722;BME280;13578;53.450;15.496;2022-10-13T04:14:45;100384.19;;;4.60;100.00
25722;BME280;13578;53.450;15.496;2022-10-13T04:17:46;100375.88;;;4.63;100.00
25722;BME280;13578;53.450;15.496;2022-10-13T04:20:46;100375.78;;;4.65;100.00
25722;BME280;13578;53.450;15.496;2022-10-13T04:23:47;100374.91;;;4.64;100.00
25722;BME280;13578;53.450;15.496;2022-10-13T04:26:48;100381.41;;;4.61;100.00
25722;BME280;13578;53.450;15.496;2022-10-13T04:29:49;100372.56;;;4.58;100.00
25722;BME280;13578;53.450;15.496;2022-10-13T04:32:49;100372.56;;;4.58;100.00
25722;BME280;13578;53.450;15.496;2022-10-13T04:35:50;100357.09;;;4.58;100.00
25722;BME280;13578;53.450;15.496;2022-10-13T04:38:51;100359.28;;;4.52;100.00
25722;BME280;13578;53.450;15.496;2022-10-13T04:41:52;100351.75;;;4.57;100.00
25722;BME280;13578;53.450;15.496;2022-10-13T04:44:53;100342.72;;;4.56;100.00
25722;BME280;13578;53.450;15.496;2022-10-13T04:47:54;100350.34;;;4.50;100.00
25722;BME280;13578;53.450;15.496;2022-10-13T04:51:02;100349.47;;;4.49;100.00
25722;BME280;13578;53.450;15.496;2022-10-13T04:54:03;100352.63;;;4.57;100.00
25722;BME280;13578;53.450;15.496;2022-10-13T04:57:04;100343.59;;;4.57;100.00
25722;BME280;13578;53.450;15.496;2022-10-13T05:00:06;100339.47;;;4.50;100.00
25722;BME280;13578;53.450;15.496;2022-10-13T05:03:06;100338.13;;;4.41;100.00
25722;BME280;13578;53.450;15.496;2022-10-13T05:06:19;100339.47;;;4.50;100.00
25722;BME280;13578;53.450;15.496;2022-10-13T05:09:20;100335.25;;;4.60;100.00
25722;BME280;13578;53.450;15.496;2022-10-13T05:12:21;100332.53;;;4.60;100.00
25722;BME280;13578;53.450;15.496;2022-10-13T05:15:22;100337.22;;;4.58;100.00
25722;BME280;13578;53.450;15.496;2022-10-13T05:18:23;100334.91;;;4.50;100.00
25722;BME280;13578;53.450;15.496;2022-10-13T05:21:27;100335.81;;;4.51;100.00
25722;BME280;13578;53.450;15.496;2022-10-13T05:24:28;100334.91;;;4.50;100.00
25722;BME280;13578;53.450;15.496;2022-10-13T05:27:38;100333.94;;;4.51;100.00
25722;BME280;13578;53.450;15.496;2022-10-13T05:30:38;100329.31;;;4.53;100.00
25722;BME280;13578;53.450;15.496;2022-10-13T05:33:39;100332.13;;;4.68;100.00
25722;BME280;13578;53.450;15.496;2022-10-13T05:36:40;100329.66;;;4.63;100.00
25722;BME280;13578;53.450;15.496;2022-10-13T05:39:41;100322.19;;;4.67;100.00
25722;BME280;13578;53.450;15.496;2022-10-13T05:42:42;100318.53;;;4.68;100.00
25722;BME280;13578;53.450;15.496;2022-10-13T05:45:43;100319.13;;;4.73;100.00
25722;BME280;13578;53.450;15.496;2022-10-13T05:48:43;100311.75;;;4.75;100.00
25722;BME280;13578;53.450;15.496;2022-10-13T05:51:46;100320.16;;;4.86;100.00
25722;BME280;13578;53.450;15.496;2022-10-13T05:54:51;100315.97;;;4.81;100.00
25722;BME280;13578;53.450;15.496;2022-10-13T05:57:52;100314.38;;;4.92;100.00
25722;BME280;13578;53.450;15.496;2022-10-13T06:00:53;100315.69;;;5.01;100.00
25722;BME280;13578;53.450;15.496;2022-10-13T06:03:58;100314.44;;;5.07;100.00
25722;BME280;13578;53.450;15.496;2022-10-13T06:07:01;100311.91;;;5.04;100.00
25722;BME280;13578;53.450;15.496;2022-10-13T06:10:02;100307.66;;;5.14;100.00
25722;BME280;13578;53.450;15.496;2022-10-13T06:13:03;100309.72;;;5.25;100.00
25722;BME280;13578;53.450;15.496;2022-10-13T06:16:04;100299.56;;;5.29;100.00
25722;BME280;13578;53.450;15.496;2022-10-13T06:19:04;100319.38;;;5.31;100.00
25722;BME280;13578;53.450;15.496;2022-10-13T06:22:06;100315.31;;;5.38;100.00
25722;BME280;13578;53.450;15.496;2022-10-13T06:25:07;100312.22;;;5.44;100.00
25722;BME280;13578;53.450;15.496;2022-10-13T06:28:08;100302.44;;;5.56;100.00
25722;BME280;13578;53.450;15.496;2022-10-13T06:31:08;100295.75;;;5.62;100.00
25722;BME280;13578;53.450;15.496;2022-10-13T06:34:09;100299.06;;;5.67;100.00
25722;BME280;13578;53.450;15.496;2022-10-13T06:37:10;100302.56;;;5.69;100.00
25722;BME280;13578;53.450;15.496;2022-10-13T06:40:11;100294.81;;;5.77;100.00
25722;BME280;13578;53.450;15.496;2022-10-13T06:43:11;100291.59;;;5.85;100.00
25722;BME280;13578;53.450;15.496;2022-10-13T06:46:12;100297.72;;;5.88;100.00
25722;BME280;13578;53.450;15.496;2022-10-13T06:49:12;100296.28;;;5.97;100.00
25722;BME280;13578;53.450;15.496;2022-10-13T06:52:13;100287.53;;;6.07;100.00
25722;BME280;13578;53.450;15.496;2022-10-13T06:55:14;100288.03;;;6.13;100.00
25722;BME280;13578;53.450;15.496;2022-10-13T06:58:15;100291.25;;;6.20;100.00
25722;BME280;13578;53.450;15.496;2022-10-13T07:01:16;100297.56;;;6.20;100.00
25722;BME280;13578;53.450;15.496;2022-10-13T07:04:16;100294.34;;;6.28;100.00
25722;BME280;13578;53.450;15.496;2022-10-13T07:07:17;100293.06;;;6.34;100.00
25722;BME280;13578;53.450;15.496;2022-10-13T07:10:18;100303.00;;;6.49;100.00
25722;BME280;13578;53.450;15.496;2022-10-13T07:13:18;100301.63;;;6.57;100.00
25722;BME280;13578;53.450;15.496;2022-10-13T07:16:19;100294.84;;;6.77;100.00
25722;BME280;13578;53.450;15.496;2022-10-13T07:19:20;100290.44;;;6.89;100.00
25722;BME280;13578;53.450;15.496;2022-10-13T07:22:20;100291.47;;;7.01;100.00
25722;BME280;13578;53.450;15.496;2022-10-13T07:25:21;100298.69;;;7.14;100.00
25722;BME280;13578;53.450;15.496;2022-10-13T07:28:23;100286.50;;;7.20;100.00
25722;BME280;13578;53.450;15.496;2022-10-13T07:31:24;100289.03;;;7.36;100.00
25722;BME280;13578;53.450;15.496;2022-10-13T07:34:25;100297.16;;;7.51;100.00
25722;BME280;13578;53.450;15.496;2022-10-13T07:37:26;100293.34;;;7.66;100.00
25722;BME280;13578;53.450;15.496;2022-10-13T07:40:27;100291.63;;;7.78;100.00
25722;BME280;13578;53.450;15.496;2022-10-13T07:43:28;100281.47;;;7.93;100.00
25722;BME280;13578;53.450;15.496;2022-10-13T07:46:28;100286.81;;;8.07;100.00
25722;BME280;13578;53.450;15.496;2022-10-13T07:49:29;100273.56;;;8.14;100.00
25722;BME280;13578;53.450;15.496;2022-10-13T07:52:30;100280.06;;;8.37;100.00
25722;BME280;13578;53.450;15.496;2022-10-13T07:55:30;100282.69;;;8.52;100.00
25722;BME280;13578;53.450;15.496;2022-10-13T07:58:32;100280.13;;;8.74;100.00
25722;BME280;13578;53.450;15.496;2022-10-13T08:01:33;100281.22;;;8.96;100.00
25722;BME280;13578;53.450;15.496;2022-10-13T08:04:34;100278.69;;;9.06;100.00
25722;BME280;13578;53.450;15.496;2022-10-13T08:07:35;100265.47;;;9.24;100.00
25722;BME280;13578;53.450;15.496;2022-10-13T08:10:38;100275.47;;;9.48;100.00
25722;BME280;13578;53.450;15.496;2022-10-13T08:13:39;100255.34;;;9.60;100.00
25722;BME280;13578;53.450;15.496;2022-10-13T08:16:39;100260.13;;;9.81;100.00
25722;BME280;13578;53.450;15.496;2022-10-13T08:19:44;100261.28;;;10.01;100.00
25722;BME280;13578;53.450;15.496;2022-10-13T08:22:45;100257.03;;;10.20;100.00
25722;BME280;13578;53.450;15.496;2022-10-13T08:25:45;100261.50;;;10.32;100.00
25722;BME280;13578;53.450;15.496;2022-10-13T08:28:46;100265.41;;;10.41;100.00
25722;BME280;13578;53.450;15.496;2022-10-13T08:31:47;100260.56;;;10.44;100.00
25722;BME280;13578;53.450;15.496;2022-10-13T08:34:48;100252.19;;;10.57;100.00
25722;BME280;13578;53.450;15.496;2022-10-13T08:37:49;100257.41;;;10.60;100.00
25722;BME280;13578;53.450;15.496;2022-10-13T08:40:50;100249.78;;;10.64;100.00
25722;BME280;13578;53.450;15.496;2022-10-13T08:43:54;100261.66;;;10.64;100.00
25722;BME280;13578;53.450;15.496;2022-10-13T08:47:05;100252.16;;;10.69;100.00
25722;BME280;13578;53.450;15.496;2022-10-13T08:50:24;100251.91;;;10.72;100.00
25722;BME280;13578;53.450;15.496;2022-10-13T08:53:30;100255.47;;;10.84;100.00
25722;BME280;13578;53.450;15.496;2022-10-13T08:56:33;100258.34;;;10.93;100.00
25722;BME280;13578;53.450;15.496;2022-10-13T08:59:34;100261.94;;;10.94;100.00
25722;BME280;13578;53.450;15.496;2022-10-13T09:02:36;100262.31;;;11.01;100.00
25722;BME280;13578;53.450;15.496;2022-10-13T09:05:44;100263.53;;;11.08;100.00
25722;BME280;13578;53.450;15.496;2022-10-13T09:09:00;100254.88;;;11.12;100.00
25722;BME280;13578;53.450;15.496;2022-10-13T09:12:02;100252.00;;;11.14;100.00
25722;BME280;13578;53.450;15.496;2022-10-13T09:15:06;100252.69;;;11.27;100.00
25722;BME280;13578;53.450;15.496;2022-10-13T09:18:11;100256.41;;;11.38;100.00
25722;BME280;13578;53.450;15.496;2022-10-13T09:21:19;100252.13;;;11.45;100.00
25722;BME280;13578;53.450;15.496;2022-10-13T09:24:22;100250.91;;;11.59;100.00
25722;BME280;13578;53.450;15.496;2022-10-13T09:27:23;100256.88;;;11.64;100.00
25722;BME280;13578;53.450;15.496;2022-10-13T09:30:40;100256.00;;;11.85;100.00
25722;BME280;13578;53.450;15.496;2022-10-13T09:33:42;100258.00;;;11.83;100.00
25722;BME280;13578;53.450;15.496;2022-10-13T09:37:05;100247.47;;;11.88;100.00
25722;BME280;13578;53.450;15.496;2022-10-13T09:40:19;100244.91;;;11.96;100.00
25722;BME280;13578;53.450;15.496;2022-10-13T09:43:31;100251.22;;;12.08;100.00
25722;BME280;13578;53.450;15.496;2022-10-13T09:46:36;100250.69;;;12.14;100.00
25722;BME280;13578;53.450;15.496;2022-10-13T09:49:39;100245.47;;;12.11;100.00
25722;BME280;13578;53.450;15.496;2022-10-13T09:52:41;100251.88;;;12.21;100.00
25722;BME280;13578;53.450;15.496;2022-10-13T09:55:41;100242.47;;;12.24;100.00
25722;BME280;13578;53.450;15.496;2022-10-13T09:59:06;100243.38;;;12.34;100.00
25722;BME280;13578;53.450;15.496;2022-10-13T10:02:23;100232.53;;;12.33;100.00
25722;BME280;13578;53.450;15.496;2022-10-13T10:08:54;100231.41;;;12.45;100.00
25722;BME280;13578;53.450;15.496;2022-10-13T10:11:58;100218.06;;;12.50;100.00
25722;BME280;13578;53.450;15.496;2022-10-13T10:14:59;100226.81;;;12.55;100.00
25722;BME280;13578;53.450;15.496;2022-10-13T10:18:06;100228.81;;;12.53;100.00
25722;BME280;13578;53.450;15.496;2022-10-13T10:24:41;100215.94;;;12.64;100.00
25722;BME280;13578;53.450;15.496;2022-10-13T10:31:20;100216.41;;;12.69;100.00
25722;BME280;13578;53.450;15.496;2022-10-13T10:34:27;100207.13;;;12.70;100.00
25722;BME280;13578;53.450;15.496;2022-10-13T10:41:49;100201.31;;;12.73;100.00
25722;BME280;13578;53.450;15.496;2022-10-13T10:44:53;100197.13;;;12.79;100.00
25722;BME280;13578;53.450;15.496;2022-10-13T10:48:02;100188.00;;;12.88;100.00
25722;BME280;13578;53.450;15.496;2022-10-13T10:51:07;100183.66;;;12.95;100.00
25722;BME280;13578;53.450;15.496;2022-10-13T10:54:23;100182.94;;;13.03;100.00
25722;BME280;13578;53.450;15.496;2022-10-13T10:57:39;100186.41;;;13.25;100.00
25722;BME280;13578;53.450;15.496;2022-10-13T11:01:14;100183.34;;;13.38;100.00
25722;BME280;13578;53.450;15.496;2022-10-13T11:10:38;100175.34;;;13.64;100.00
25722;BME280;13578;53.450;15.496;2022-10-13T11:17:12;100187.19;;;13.74;100.00
25722;BME280;13578;53.450;15.496;2022-10-13T11:26:39;100183.84;;;14.18;100.00
25722;BME280;13578;53.450;15.496;2022-10-13T11:32:46;100168.91;;;14.39;100.00
25722;BME280;13578;53.450;15.496;2022-10-13T11:35:55;100172.91;;;14.54;100.00
25722;BME280;13578;53.450;15.496;2022-10-13T11:46:01;100160.34;;;14.42;100.00
25722;BME280;13578;53.450;15.496;2022-10-13T11:49:54;100155.13;;;14.39;100.00
25722;BME280;13578;53.450;15.496;2022-10-13T11:53:16;100150.16;;;14.42;100.00
25722;BME280;13578;53.450;15.496;2022-10-13T11:56:31;100141.50;;;14.55;100.00
25722;BME280;13578;53.450;15.496;2022-10-13T11:59:35;100151.31;;;14.68;100.00
25722;BME280;13578;53.450;15.496;2022-10-13T12:02:47;100136.94;;;14.64;100.00
25722;BME280;13578;53.450;15.496;2022-10-13T12:05:49;100138.75;;;14.55;100.00
25722;BME280;13578;53.450;15.496;2022-10-13T12:08:51;100135.25;;;14.53;100.00
25722;BME280;13578;53.450;15.496;2022-10-13T12:12:15;100126.91;;;14.63;100.00
25722;BME280;13578;53.450;15.496;2022-10-13T12:18:32;100121.53;;;14.61;100.00
25722;BME280;13578;53.450;15.496;2022-10-13T12:21:47;100117.53;;;14.74;100.00
25722;BME280;13578;53.450;15.496;2022-10-13T12:25:14;100112.34;;;14.71;100.00
25722;BME280;13578;53.450;15.496;2022-10-13T12:28:18;100100.94;;;14.56;100.00
25722;BME280;13578;53.450;15.496;2022-10-13T12:31:22;100101.09;;;14.54;100.00
25722;BME280;13578;53.450;15.496;2022-10-13T12:34:28;100091.97;;;14.54;100.00
25722;BME280;13578;53.450;15.496;2022-10-13T12:37:34;100090.53;;;14.50;100.00
25722;BME280;13578;53.450;15.496;2022-10-13T12:40:36;100091.16;;;14.43;100.00
25722;BME280;13578;53.450;15.496;2022-10-13T12:43:38;100087.75;;;14.50;100.00
25722;BME280;13578;53.450;15.496;2022-10-13T12:46:45;100085.47;;;14.63;100.00
25722;BME280;13578;53.450;15.496;2022-10-13T12:49:46;100078.72;;;14.75;100.00
25722;BME280;13578;53.450;15.496;2022-10-13T12:53:35;100071.00;;;14.79;100.00
25722;BME280;13578;53.450;15.496;2022-10-13T12:56:29;100066.31;;;14.80;100.00
25722;BME280;13578;53.450;15.496;2022-10-13T12:59:30;100074.31;;;14.83;100.00
25722;BME280;13578;53.450;15.496;2022-10-13T13:02:32;100069.38;;;14.76;100.00
25722;BME280;13578;53.450;15.496;2022-10-13T13:05:41;100071.84;;;14.80;100.00
25722;BME280;13578;53.450;15.496;2022-10-13T13:08:43;100063.63;;;14.88;100.00
25722;BME280;13578;53.450;15.496;2022-10-13T13:11:44;100052.50;;;14.80;100.00
25722;BME280;13578;53.450;15.496;2022-10-13T13:14:47;100066.97;;;14.73;100.00
25722;BME280;13578;53.450;15.496;2022-10-13T13:17:49;100070.38;;;14.67;100.00
25722;BME280;13578;53.450;15.496;2022-10-13T13:20:50;100074.41;;;14.63;100.00
25722;BME280;13578;53.450;15.496;2022-10-13T13:23:50;100063.72;;;14.60;100.00
25722;BME280;13578;53.450;15.496;2022-10-13T13:26:51;100062.59;;;14.53;100.00
25722;BME280;13578;53.450;15.496;2022-10-13T13:29:55;100058.97;;;14.52;100.00
25722;BME280;13578;53.450;15.496;2022-10-13T13:32:56;100059.44;;;14.66;100.00
25722;BME280;13578;53.450;15.496;2022-10-13T13:35:56;100055.38;;;14.70;100.00
25722;BME280;13578;53.450;15.496;2022-10-13T13:38:57;100061.34;;;14.83;100.00
25722;BME280;13578;53.450;15.496;2022-10-13T13:41:58;100054.03;;;15.00;100.00
25722;BME280;13578;53.450;15.496;2022-10-13T13:44:58;100059.47;;;15.10;100.00
25722;BME280;13578;53.450;15.496;2022-10-13T13:47:59;100065.41;;;15.15;100.00
25722;BME280;13578;53.450;15.496;2022-10-13T13:51:00;100063.81;;;15.13;100.00
25722;BME280;13578;53.450;15.496;2022-10-13T13:54:01;100072.91;;;15.05;100.00
25722;BME280;13578;53.450;15.496;2022-10-13T13:57:01;100068.44;;;14.86;100.00
25722;BME280;13578;53.450;15.496;2022-10-13T14:00:03;100075.00;;;14.67;100.00
25722;BME280;13578;53.450;15.496;2022-10-13T14:03:05;100068.28;;;14.69;100.00
25722;BME280;13578;53.450;15.496;2022-10-13T14:06:06;100068.81;;;14.55;100.00
25722;BME280;13578;53.450;15.496;2022-10-13T14:09:07;100070.88;;;14.53;100.00
25722;BME280;13578;53.450;15.496;2022-10-13T14:12:07;100074.03;;;14.40;100.00
25722;BME280;13578;53.450;15.496;2022-10-13T14:15:08;100068.59;;;14.30;100.00
25722;BME280;13578;53.450;15.496;2022-10-13T14:18:09;100059.88;;;14.25;100.00
25722;BME280;13578;53.450;15.496;2022-10-13T14:21:10;100054.06;;;14.28;100.00
25722;BME280;13578;53.450;15.496;2022-10-13T14:24:10;100058.63;;;14.19;100.00
25722;BME280;13578;53.450;15.496;2022-10-13T14:27:11;100052.94;;;14.21;100.00
25722;BME280;13578;53.450;15.496;2022-10-13T14:30:13;100059.88;;;14.25;100.00
25722;BME280;13578;53.450;15.496;2022-10-13T14:33:13;100057.19;;;14.15;100.00
25722;BME280;13578;53.450;15.496;2022-10-13T14:36:18;100056.56;;;14.21;100.00
25722;BME280;13578;53.450;15.496;2022-10-13T14:39:19;100063.03;;;14.12;100.00
25722;BME280;13578;53.450;15.496;2022-10-13T14:42:20;100058.78;;;14.18;100.00
25722;BME280;13578;53.450;15.496;2022-10-13T14:45:20;100040.69;;;14.05;100.00
25722;BME280;13578;53.450;15.496;2022-10-13T14:48:21;100050.34;;;14.01;100.00
25722;BME280;13578;53.450;15.496;2022-10-13T14:51:22;100050.22;;;13.93;100.00
25722;BME280;13578;53.450;15.496;2022-10-13T14:54:23;100052.88;;;13.85;100.00
25722;BME280;13578;53.450;15.496;2022-10-13T14:57:24;100044.50;;;13.76;100.00
25722;BME280;13578;53.450;15.496;2022-10-13T15:00:24;100051.03;;;13.75;100.00
25722;BME280;13578;53.450;15.496;2022-10-13T15:03:25;100046.53;;;13.74;100.00
25722;BME280;13578;53.450;15.496;2022-10-13T15:06:27;100041.19;;;13.73;100.00
25722;BME280;13578;53.450;15.496;2022-10-13T15:09:28;100037.88;;;13.69;100.00
25722;BME280;13578;53.450;15.496;2022-10-13T15:12:28;100046.44;;;13.66;100.00
25722;BME280;13578;53.450;15.496;2022-10-13T15:15:29;100043.44;;;13.59;100.00
25722;BME280;13578;53.450;15.496;2022-10-13T15:18:31;100045.78;;;13.54;100.00
25722;BME280;13578;53.450;15.496;2022-10-13T15:21:31;100044.16;;;13.52;100.00
25722;BME280;13578;53.450;15.496;2022-10-13T15:24:32;100040.00;;;13.47;100.00
25722;BME280;13578;53.450;15.496;2022-10-13T15:27:33;100031.31;;;13.42;100.00
25722;BME280;13578;53.450;15.496;2022-10-13T15:30:34;100032.63;;;13.38;100.00
25722;BME280;13578;53.450;15.496;2022-10-13T15:33:35;100035.94;;;13.32;100.00
25722;BME280;13578;53.450;15.496;2022-10-13T15:36:35;100033.66;;;13.27;100.00
25722;BME280;13578;53.450;15.496;2022-10-13T15:39:36;100030.19;;;13.25;100.00
25722;BME280;13578;53.450;15.496;2022-10-13T15:42:37;100021.22;;;13.13;100.00
25722;BME280;13578;53.450;15.496;2022-10-13T15:45:37;100027.63;;;13.04;100.00
25722;BME280;13578;53.450;15.496;2022-10-13T15:48:38;100018.94;;;12.89;100.00
25722;BME280;13578;53.450;15.496;2022-10-13T15:51:39;100016.09;;;12.81;100.00
25722;BME280;13578;53.450;15.496;2022-10-13T15:54:39;100026.81;;;12.74;100.00
25722;BME280;13578;53.450;15.496;2022-10-13T15:57:40;100011.47;;;12.62;100.00
25722;BME280;13578;53.450;15.496;2022-10-13T16:00:41;100012.50;;;12.51;100.00
25722;BME280;13578;53.450;15.496;2022-10-13T16:03:42;100010.63;;;12.42;100.00
25722;BME280;13578;53.450;15.496;2022-10-13T16:06:42;100009.63;;;12.33;100.00
25722;BME280;13578;53.450;15.496;2022-10-13T16:09:43;100004.53;;;12.28;100.00
25722;BME280;13578;53.450;15.496;2022-10-13T16:12:44;100009.31;;;12.16;100.00
25722;BME280;13578;53.450;15.496;2022-10-13T16:15:55;100003.06;;;12.04;100.00
25722;BME280;13578;53.450;15.496;2022-10-13T16:18:56;100004.78;;;11.96;100.00
25722;BME280;13578;53.450;15.496;2022-10-13T16:21:57;100000.91;;;11.98;100.00
25722;BME280;13578;53.450;15.496;2022-10-13T16:24:58;99997.53;;;11.95;100.00
25722;BME280;13578;53.450;15.496;2022-10-13T16:27:58;100002.88;;;11.86;100.00
25722;BME280;13578;53.450;15.496;2022-10-13T16:31:07;100004.72;;;11.76;100.00
25722;BME280;13578;53.450;15.496;2022-10-13T16:34:09;100012.66;;;11.69;100.00
25722;BME280;13578;53.450;15.496;2022-10-13T16:37:10;100018.28;;;11.68;100.00
25722;BME280;13578;53.450;15.496;2022-10-13T16:40:10;100010.78;;;11.70;100.00
25722;BME280;13578;53.450;15.496;2022-10-13T16:43:11;100006.41;;;11.57;100.00
25722;BME280;13578;53.450;15.496;2022-10-13T16:46:13;100013.34;;;11.62;100.00
25722;BME280;13578;53.450;15.496;2022-10-13T16:49:14;100008.56;;;11.54;100.00
25722;BME280;13578;53.450;15.496;2022-10-13T16:52:15;100006.09;;;11.51;100.00
25722;BME280;13578;53.450;15.496;2022-10-13T16:55:16;100005.22;;;11.50;100.00
25722;BME280;13578;53.450;15.496;2022-10-13T16:58:17;100007.97;;;11.50;100.00